sensor_id;sensor_type;location;lat;lon;timestamp;P1;durP1;ratioP1;P2;durP2;ratioP2
22256;SDS011;11297;42.686;23.374;2022-08-19T00:01:22;6.10;;;5.53;;
22256;SDS011;11297;42.686;23.374;2022-08-19T00:03:49;5.50;;;5.07;;
22256;SDS011;11297;42.686;23.374;2022-08-19T00:06:14;7.40;;;6.70;;
22256;SDS011;11297;42.686;23.374;2022-08-19T00:08:40;8.37;;;6.03;;
22256;SDS011;11297;42.686;23.374;2022-08-19T00:11:06;7.37;;;6.60;;
22256;SDS011;11297;42.686;23.374;2022-08-19T00:13:32;8.50;;;7.60;;
22256;SDS011;11297;42.686;23.374;2022-08-19T00:15:58;9.47;;;8.07;;
22256;SDS011;11297;42.686;23.374;2022-08-19T00:18:24;11.07;;;9.17;;
22256;SDS011;11297;42.686;23.374;2022-08-19T00:20:50;7.83;;;6.90;;
22256;SDS011;11297;42.686;23.374;2022-08-19T00:23:16;7.33;;;6.00;;
22256;SDS011;11297;42.686;23.374;2022-08-19T00:25:42;8.27;;;6.83;;
22256;SDS011;11297;42.686;23.374;2022-08-19T00:28:07;9.33;;;7.80;;
22256;SDS011;11297;42.686;23.374;2022-08-19T00:30:32;10.17;;;8.57;;
22256;SDS011;11297;42.686;23.374;2022-08-19T00:32:58;10.63;;;8.23;;
22256;SDS011;11297;42.686;23.374;2022-08-19T00:35:24;8.17;;;7.43;;
22256;SDS011;11297;42.686;23.374;2022-08-19T00:37:50;9.17;;;7.67;;
22256;SDS011;11297;42.686;23.374;2022-08-19T00:40:15;8.80;;;7.30;;
22256;SDS011;11297;42.686;23.374;2022-08-19T00:42:42;10.00;;;7.27;;
22256;SDS011;11297;42.686;23.374;2022-08-19T00:45:09;8.30;;;7.53;;
22256;SDS011;11297;42.686;23.374;2022-08-19T00:47:37;6.77;;;6.10;;
22256;SDS011;11297;42.686;23.374;2022-08-19T00:50:03;6.50;;;5.90;;
22256;SDS011;11297;42.686;23.374;2022-08-19T00:52:31;7.57;;;6.60;;
22256;SDS011;11297;42.686;23.374;2022-08-19T00:55:00;8.13;;;7.23;;
22256;SDS011;11297;42.686;23.374;2022-08-19T00:57:28;8.93;;;7.97;;
22256;SDS011;11297;42.686;23.374;2022-08-19T00:59:57;6.70;;;6.10;;
22256;SDS011;11297;42.686;23.374;2022-08-19T01:02:25;8.17;;;5.97;;
22256;SDS011;11297;42.686;23.374;2022-08-19T01:04:52;7.67;;;6.00;;
22256;SDS011;11297;42.686;23.374;2022-08-19T01:07:18;6.97;;;5.63;;
22256;SDS011;11297;42.686;23.374;2022-08-19T01:09:43;6.43;;;5.83;;
22256;SDS011;11297;42.686;23.374;2022-08-19T01:12:09;6.90;;;6.30;;
22256;SDS011;11297;42.686;23.374;2022-08-19T01:14:34;5.87;;;5.30;;
22256;SDS011;11297;42.686;23.374;2022-08-19T01:17:02;6.40;;;5.80;;
22256;SDS011;11297;42.686;23.374;2022-08-19T01:19:31;6.53;;;5.93;;
22256;SDS011;11297;42.686;23.374;2022-08-19T01:22:02;6.80;;;6.20;;
22256;SDS011;11297;42.686;23.374;2022-08-19T01:24:33;7.10;;;6.50;;
22256;SDS011;11297;42.686;23.374;2022-08-19T01:26:59;7.30;;;6.67;;
22256;SDS011;11297;42.686;23.374;2022-08-19T01:29:24;5.80;;;5.27;;
22256;SDS011;11297;42.686;23.374;2022-08-19T01:31:50;7.20;;;6.60;;
22256;SDS011;11297;42.686;23.374;2022-08-19T01:34:17;6.13;;;5.53;;
22256;SDS011;11297;42.686;23.374;2022-08-19T01:36:44;6.77;;;6.03;;
22256;SDS011;11297;42.686;23.374;2022-08-19T01:39:13;7.47;;;5.50;;
22256;SDS011;11297;42.686;23.374;2022-08-19T01:41:41;8.60;;;6.50;;
22256;SDS011;11297;42.686;23.374;2022-08-19T01:44:07;7.23;;;6.47;;
22256;SDS011;11297;42.686;23.374;2022-08-19T01:46:34;7.83;;;7.07;;
22256;SDS011;11297;42.686;23.374;2022-08-19T01:49:01;7.50;;;6.80;;
22256;SDS011;11297;42.686;23.374;2022-08-19T01:51:27;7.77;;;6.83;;
22256;SDS011;11297;42.686;23.374;2022-08-19T01:53:53;6.97;;;6.27;;
22256;SDS011;11297;42.686;23.374;2022-08-19T01:56:19;8.03;;;7.00;;
22256;SDS011;11297;42.686;23.374;2022-08-19T01:58:47;7.70;;;6.90;;
22256;SDS011;11297;42.686;23.374;2022-08-19T02:01:18;7.67;;;6.97;;
22256;SDS011;11297;42.686;23.374;2022-08-19T02:03:44;9.17;;;6.63;;
22256;SDS011;11297;42.686;23.374;2022-08-19T02:06:10;8.90;;;7.50;;
22256;SDS011;11297;42.686;23.374;2022-08-19T02:08:36;9.13;;;6.27;;
22256;SDS011;11297;42.686;23.374;2022-08-19T02:11:03;6.73;;;6.00;;
22256;SDS011;11297;42.686;23.374;2022-08-19T02:13:30;11.47;;;7.07;;
22256;SDS011;11297;42.686;23.374;2022-08-19T02:15:56;8.00;;;7.00;;
22256;SDS011;11297;42.686;23.374;2022-08-19T02:18:21;8.03;;;7.23;;
22256;SDS011;11297;42.686;23.374;2022-08-19T02:20:47;8.93;;;6.97;;
22256;SDS011;11297;42.686;23.374;2022-08-19T02:23:13;7.90;;;7.07;;
22256;SDS011;11297;42.686;23.374;2022-08-19T02:25:41;7.60;;;6.70;;
22256;SDS011;11297;42.686;23.374;2022-08-19T02:28:07;7.77;;;7.07;;
22256;SDS011;11297;42.686;23.374;2022-08-19T02:30:32;7.83;;;7.07;;
22256;SDS011;11297;42.686;23.374;2022-08-19T02:32:58;9.53;;;8.33;;
22256;SDS011;11297;42.686;23.374;2022-08-19T02:35:24;8.53;;;7.60;;
22256;SDS011;11297;42.686;23.374;2022-08-19T02:37:49;8.87;;;7.47;;
22256;SDS011;11297;42.686;23.374;2022-08-19T02:40:51;8.00;;;7.17;;
22256;SDS011;11297;42.686;23.374;2022-08-19T02:43:18;9.50;;;7.90;;
22256;SDS011;11297;42.686;23.374;2022-08-19T02:45:48;11.43;;;8.00;;
22256;SDS011;11297;42.686;23.374;2022-08-19T02:48:15;9.43;;;6.60;;
22256;SDS011;11297;42.686;23.374;2022-08-19T02:50:42;9.13;;;8.23;;
22256;SDS011;11297;42.686;23.374;2022-08-19T02:53:08;8.40;;;7.60;;
22256;SDS011;11297;42.686;23.374;2022-08-19T02:55:34;8.97;;;7.40;;
22256;SDS011;11297;42.686;23.374;2022-08-19T02:57:59;8.97;;;8.10;;
22256;SDS011;11297;42.686;23.374;2022-08-19T03:00:26;9.50;;;8.57;;
22256;SDS011;11297;42.686;23.374;2022-08-19T03:02:52;15.47;;;11.37;;
22256;SDS011;11297;42.686;23.374;2022-08-19T03:05:17;10.37;;;9.37;;
22256;SDS011;11297;42.686;23.374;2022-08-19T03:07:43;9.00;;;7.50;;
22256;SDS011;11297;42.686;23.374;2022-08-19T03:10:09;8.83;;;7.93;;
22256;SDS011;11297;42.686;23.374;2022-08-19T03:12:35;9.47;;;8.30;;
22256;SDS011;11297;42.686;23.374;2022-08-19T03:15:03;9.23;;;8.10;;
22256;SDS011;11297;42.686;23.374;2022-08-19T03:17:32;9.30;;;8.33;;
22256;SDS011;11297;42.686;23.374;2022-08-19T03:19:58;8.87;;;7.97;;
22256;SDS011;11297;42.686;23.374;2022-08-19T03:22:24;10.43;;;8.90;;
22256;SDS011;11297;42.686;23.374;2022-08-19T03:24:50;9.00;;;8.20;;
22256;SDS011;11297;42.686;23.374;2022-08-19T03:27:16;12.77;;;8.60;;
22256;SDS011;11297;42.686;23.374;2022-08-19T03:29:42;8.30;;;7.53;;
22256;SDS011;11297;42.686;23.374;2022-08-19T03:32:09;11.70;;;8.33;;
22256;SDS011;11297;42.686;23.374;2022-08-19T03:34:36;7.90;;;7.10;;
22256;SDS011;11297;42.686;23.374;2022-08-19T03:37:06;7.80;;;7.03;;
22256;SDS011;11297;42.686;23.374;2022-08-19T03:39:35;8.07;;;7.27;;
22256;SDS011;11297;42.686;23.374;2022-08-19T03:42:03;9.20;;;8.30;;
22256;SDS011;11297;42.686;23.374;2022-08-19T03:44:29;10.77;;;7.90;;
22256;SDS011;11297;42.686;23.374;2022-08-19T03:46:57;6.70;;;6.00;;
22256;SDS011;11297;42.686;23.374;2022-08-19T03:49:24;12.40;;;8.80;;
22256;SDS011;11297;42.686;23.374;2022-08-19T03:51:53;8.20;;;7.13;;
22256;SDS011;11297;42.686;23.374;2022-08-19T03:54:20;8.87;;;7.97;;
22256;SDS011;11297;42.686;23.374;2022-08-19T03:56:48;9.23;;;8.13;;
22256;SDS011;11297;42.686;23.374;2022-08-19T03:59:16;10.33;;;8.40;;
22256;SDS011;11297;42.686;23.374;2022-08-19T04:01:44;9.10;;;7.87;;
22256;SDS011;11297;42.686;23.374;2022-08-19T04:04:10;14.77;;;8.57;;
22256;SDS011;11297;42.686;23.374;2022-08-19T04:06:37;9.50;;;7.90;;
22256;SDS011;11297;42.686;23.374;2022-08-19T04:09:04;10.50;;;8.90;;
22256;SDS011;11297;42.686;23.374;2022-08-19T04:11:33;13.43;;;8.53;;
22256;SDS011;11297;42.686;23.374;2022-08-19T04:14:04;11.70;;;8.07;;
22256;SDS011;11297;42.686;23.374;2022-08-19T04:16:29;13.73;;;10.90;;
22256;SDS011;11297;42.686;23.374;2022-08-19T04:18:55;12.80;;;10.57;;
22256;SDS011;11297;42.686;23.374;2022-08-19T04:21:22;9.47;;;8.50;;
22256;SDS011;11297;42.686;23.374;2022-08-19T04:23:49;8.90;;;8.10;;
22256;SDS011;11297;42.686;23.374;2022-08-19T04:26:20;8.73;;;7.83;;
22256;SDS011;11297;42.686;23.374;2022-08-19T04:28:49;15.00;;;8.73;;
22256;SDS011;11297;42.686;23.374;2022-08-19T04:31:16;10.93;;;7.80;;
22256;SDS011;11297;42.686;23.374;2022-08-19T04:33:46;8.43;;;7.33;;
22256;SDS011;11297;42.686;23.374;2022-08-19T04:36:21;13.43;;;9.20;;
22256;SDS011;11297;42.686;23.374;2022-08-19T04:38:49;12.40;;;8.77;;
22256;SDS011;11297;42.686;23.374;2022-08-19T04:41:18;15.60;;;9.50;;
22256;SDS011;11297;42.686;23.374;2022-08-19T04:44:01;12.83;;;10.23;;
22256;SDS011;11297;42.686;23.374;2022-08-19T04:46:28;9.40;;;7.60;;
22256;SDS011;11297;42.686;23.374;2022-08-19T04:48:57;8.80;;;7.87;;
22256;SDS011;11297;42.686;23.374;2022-08-19T04:51:26;7.07;;;6.37;;
22256;SDS011;11297;42.686;23.374;2022-08-19T04:53:52;9.60;;;7.10;;
22256;SDS011;11297;42.686;23.374;2022-08-19T04:56:18;7.40;;;5.77;;
22256;SDS011;11297;42.686;23.374;2022-08-19T04:58:48;9.50;;;7.93;;
22256;SDS011;11297;42.686;23.374;2022-08-19T05:01:20;10.07;;;7.47;;
22256;SDS011;11297;42.686;23.374;2022-08-19T05:03:47;13.33;;;8.27;;
22256;SDS011;11297;42.686;23.374;2022-08-19T05:06:15;10.73;;;8.30;;
22256;SDS011;11297;42.686;23.374;2022-08-19T05:08:42;12.83;;;8.33;;
22256;SDS011;11297;42.686;23.374;2022-08-19T05:11:15;10.07;;;7.73;;
22256;SDS011;11297;42.686;23.374;2022-08-19T05:13:44;10.70;;;8.67;;
22256;SDS011;11297;42.686;23.374;2022-08-19T05:16:10;9.30;;;8.30;;
22256;SDS011;11297;42.686;23.374;2022-08-19T05:18:37;11.70;;;8.33;;
22256;SDS011;11297;42.686;23.374;2022-08-19T05:21:22;9.13;;;7.20;;
22256;SDS011;11297;42.686;23.374;2022-08-19T05:24:06;10.90;;;7.73;;
22256;SDS011;11297;42.686;23.374;2022-08-19T05:26:35;11.37;;;8.57;;
22256;SDS011;11297;42.686;23.374;2022-08-19T05:29:05;10.13;;;8.07;;
22256;SDS011;11297;42.686;23.374;2022-08-19T05:31:32;9.03;;;7.73;;
22256;SDS011;11297;42.686;23.374;2022-08-19T05:33:58;11.33;;;7.87;;
22256;SDS011;11297;42.686;23.374;2022-08-19T05:36:25;10.67;;;7.80;;
22256;SDS011;11297;42.686;23.374;2022-08-19T05:38:51;12.00;;;8.37;;
22256;SDS011;11297;42.686;23.374;2022-08-19T05:41:18;9.93;;;8.10;;
22256;SDS011;11297;42.686;23.374;2022-08-19T05:43:45;11.20;;;7.13;;
22256;SDS011;11297;42.686;23.374;2022-08-19T05:46:15;10.77;;;7.40;;
22256;SDS011;11297;42.686;23.374;2022-08-19T05:48:43;11.10;;;7.63;;
22256;SDS011;11297;42.686;23.374;2022-08-19T05:51:09;10.20;;;8.10;;
22256;SDS011;11297;42.686;23.374;2022-08-19T05:53:35;13.90;;;9.30;;
22256;SDS011;11297;42.686;23.374;2022-08-19T05:56:05;9.63;;;7.80;;
22256;SDS011;11297;42.686;23.374;2022-08-19T05:58:32;10.43;;;8.60;;
22256;SDS011;11297;42.686;23.374;2022-08-19T06:00:58;12.73;;;8.07;;
22256;SDS011;11297;42.686;23.374;2022-08-19T06:03:29;9.67;;;8.73;;
22256;SDS011;11297;42.686;23.374;2022-08-19T06:05:55;12.17;;;7.63;;
22256;SDS011;11297;42.686;23.374;2022-08-19T06:08:23;9.13;;;7.27;;
22256;SDS011;11297;42.686;23.374;2022-08-19T06:10:49;9.33;;;7.90;;
22256;SDS011;11297;42.686;23.374;2022-08-19T06:13:14;11.07;;;7.07;;
22256;SDS011;11297;42.686;23.374;2022-08-19T06:15:39;14.30;;;10.40;;
22256;SDS011;11297;42.686;23.374;2022-08-19T06:18:08;12.87;;;8.90;;
22256;SDS011;11297;42.686;23.374;2022-08-19T06:20:34;9.33;;;8.53;;
22256;SDS011;11297;42.686;23.374;2022-08-19T06:22:59;12.43;;;8.97;;
22256;SDS011;11297;42.686;23.374;2022-08-19T06:25:24;7.77;;;6.97;;
22256;SDS011;11297;42.686;23.374;2022-08-19T06:27:50;11.90;;;7.87;;
22256;SDS011;11297;42.686;23.374;2022-08-19T06:30:15;7.57;;;6.87;;
22256;SDS011;11297;42.686;23.374;2022-08-19T06:32:41;9.53;;;7.57;;
22256;SDS011;11297;42.686;23.374;2022-08-19T06:35:06;7.50;;;6.80;;
22256;SDS011;11297;42.686;23.374;2022-08-19T06:37:32;10.57;;;8.00;;
22256;SDS011;11297;42.686;23.374;2022-08-19T06:39:58;13.37;;;6.83;;
22256;SDS011;11297;42.686;23.374;2022-08-19T06:42:23;10.97;;;7.40;;
22256;SDS011;11297;42.686;23.374;2022-08-19T06:44:49;7.33;;;6.50;;
22256;SDS011;11297;42.686;23.374;2022-08-19T06:47:17;9.97;;;7.33;;
22256;SDS011;11297;42.686;23.374;2022-08-19T06:49:44;11.40;;;7.77;;
22256;SDS011;11297;42.686;23.374;2022-08-19T06:52:10;7.53;;;6.73;;
22256;SDS011;11297;42.686;23.374;2022-08-19T06:54:39;9.13;;;6.10;;
22256;SDS011;11297;42.686;23.374;2022-08-19T06:57:06;8.13;;;6.63;;
22256;SDS011;11297;42.686;23.374;2022-08-19T06:59:38;10.53;;;7.57;;
22256;SDS011;11297;42.686;23.374;2022-08-19T07:02:05;9.53;;;6.67;;
22256;SDS011;11297;42.686;23.374;2022-08-19T07:04:32;8.53;;;6.90;;
22256;SDS011;11297;42.686;23.374;2022-08-19T07:07:01;7.23;;;6.53;;
22256;SDS011;11297;42.686;23.374;2022-08-19T07:09:32;7.40;;;5.83;;
22256;SDS011;11297;42.686;23.374;2022-08-19T07:11:57;7.67;;;6.00;;
22256;SDS011;11297;42.686;23.374;2022-08-19T07:14:24;5.93;;;5.30;;
22256;SDS011;11297;42.686;23.374;2022-08-19T07:16:52;6.87;;;6.17;;
22256;SDS011;11297;42.686;23.374;2022-08-19T07:19:20;7.77;;;6.40;;
22256;SDS011;11297;42.686;23.374;2022-08-19T07:21:47;7.37;;;6.47;;
22256;SDS011;11297;42.686;23.374;2022-08-19T07:24:15;10.37;;;6.00;;
22256;SDS011;11297;42.686;23.374;2022-08-19T07:26:42;11.70;;;6.57;;
22256;SDS011;11297;42.686;23.374;2022-08-19T07:29:08;7.60;;;6.10;;
22256;SDS011;11297;42.686;23.374;2022-08-19T07:31:35;6.67;;;5.97;;
22256;SDS011;11297;42.686;23.374;2022-08-19T07:34:02;7.23;;;5.30;;
22256;SDS011;11297;42.686;23.374;2022-08-19T07:36:34;8.43;;;5.80;;
22256;SDS011;11297;42.686;23.374;2022-08-19T07:39:03;6.63;;;5.60;;
22256;SDS011;11297;42.686;23.374;2022-08-19T07:41:31;9.03;;;6.10;;
22256;SDS011;11297;42.686;23.374;2022-08-19T07:43:58;7.23;;;5.83;;
22256;SDS011;11297;42.686;23.374;2022-08-19T07:46:28;11.47;;;5.93;;
22256;SDS011;11297;42.686;23.374;2022-08-19T07:48:55;13.00;;;6.37;;
22256;SDS011;11297;42.686;23.374;2022-08-19T07:51:20;8.10;;;7.30;;
22256;SDS011;11297;42.686;23.374;2022-08-19T07:53:47;7.70;;;6.10;;
22256;SDS011;11297;42.686;23.374;2022-08-19T07:56:15;6.87;;;6.27;;
22256;SDS011;11297;42.686;23.374;2022-08-19T07:58:42;6.87;;;6.23;;
22256;SDS011;11297;42.686;23.374;2022-08-19T08:01:10;9.43;;;6.37;;
22256;SDS011;11297;42.686;23.374;2022-08-19T08:03:38;8.43;;;6.53;;
22256;SDS011;11297;42.686;23.374;2022-08-19T08:06:22;9.67;;;6.47;;
22256;SDS011;11297;42.686;23.374;2022-08-19T08:09:07;8.43;;;6.00;;
22256;SDS011;11297;42.686;23.374;2022-08-19T08:11:40;13.10;;;6.50;;
22256;SDS011;11297;42.686;23.374;2022-08-19T08:14:20;9.87;;;6.60;;
22256;SDS011;11297;42.686;23.374;2022-08-19T08:16:55;7.77;;;6.07;;
22256;SDS011;11297;42.686;23.374;2022-08-19T08:19:22;11.30;;;6.30;;
22256;SDS011;11297;42.686;23.374;2022-08-19T08:21:49;7.53;;;5.73;;
22256;SDS011;11297;42.686;23.374;2022-08-19T08:24:15;7.73;;;5.90;;
22256;SDS011;11297;42.686;23.374;2022-08-19T08:26:41;6.30;;;5.70;;
22256;SDS011;11297;42.686;23.374;2022-08-19T08:29:09;8.57;;;6.30;;
22256;SDS011;11297;42.686;23.374;2022-08-19T08:31:39;6.20;;;5.53;;
22256;SDS011;11297;42.686;23.374;2022-08-19T08:34:05;8.63;;;5.93;;
22256;SDS011;11297;42.686;23.374;2022-08-19T08:36:31;5.60;;;5.10;;
22256;SDS011;11297;42.686;23.374;2022-08-19T08:38:58;6.83;;;5.90;;
22256;SDS011;11297;42.686;23.374;2022-08-19T08:41:34;9.87;;;5.37;;
22256;SDS011;11297;42.686;23.374;2022-08-19T08:44:00;7.13;;;5.05;;
22256;SDS011;11297;42.686;23.374;2022-08-19T08:46:33;7.50;;;4.93;;
22256;SDS011;11297;42.686;23.374;2022-08-19T08:51:48;6.32;;;5.72;;
22256;SDS011;11297;42.686;23.374;2022-08-19T08:54:20;9.57;;;5.82;;
22256;SDS011;11297;42.686;23.374;2022-08-19T08:56:52;6.15;;;5.55;;
22256;SDS011;11297;42.686;23.374;2022-08-19T08:59:23;9.60;;;5.63;;
22256;SDS011;11297;42.686;23.374;2022-08-19T09:01:53;11.13;;;5.43;;
22256;SDS011;11297;42.686;23.374;2022-08-19T09:04:18;5.20;;;4.40;;
22256;SDS011;11297;42.686;23.374;2022-08-19T09:09:48;9.57;;;5.10;;
22256;SDS011;11297;42.686;23.374;2022-08-19T09:15:07;6.80;;;4.70;;
22256;SDS011;11297;42.686;23.374;2022-08-19T09:17:36;7.47;;;4.72;;
22256;SDS011;11297;42.686;23.374;2022-08-19T09:22:38;5.32;;;4.43;;
22256;SDS011;11297;42.686;23.374;2022-08-19T09:25:06;6.45;;;4.85;;
22256;SDS011;11297;42.686;23.374;2022-08-19T09:27:33;5.40;;;4.40;;
22256;SDS011;11297;42.686;23.374;2022-08-19T09:30:03;4.05;;;3.65;;
22256;SDS011;11297;42.686;23.374;2022-08-19T09:32:29;7.63;;;4.18;;
22256;SDS011;11297;42.686;23.374;2022-08-19T09:34:55;8.25;;;4.40;;
22256;SDS011;11297;42.686;23.374;2022-08-19T09:37:23;4.57;;;4.00;;
22256;SDS011;11297;42.686;23.374;2022-08-19T09:39:49;8.10;;;4.20;;
22256;SDS011;11297;42.686;23.374;2022-08-19T09:42:15;5.43;;;4.03;;
22256;SDS011;11297;42.686;23.374;2022-08-19T09:44:42;4.78;;;3.88;;
22256;SDS011;11297;42.686;23.374;2022-08-19T09:47:09;5.97;;;4.07;;
22256;SDS011;11297;42.686;23.374;2022-08-19T09:49:35;4.95;;;4.45;;
22256;SDS011;11297;42.686;23.374;2022-08-19T09:52:00;6.63;;;3.50;;
22256;SDS011;11297;42.686;23.374;2022-08-19T09:54:26;4.47;;;3.92;;
22256;SDS011;11297;42.686;23.374;2022-08-19T09:56:52;5.85;;;3.70;;
22256;SDS011;11297;42.686;23.374;2022-08-19T09:59:18;4.95;;;3.70;;
22256;SDS011;11297;42.686;23.374;2022-08-19T10:01:44;4.80;;;3.58;;
22256;SDS011;11297;42.686;23.374;2022-08-19T10:04:09;5.43;;;3.90;;
22256;SDS011;11297;42.686;23.374;2022-08-19T10:06:35;4.97;;;3.42;;
22256;SDS011;11297;42.686;23.374;2022-08-19T10:09:04;5.40;;;4.90;;
22256;SDS011;11297;42.686;23.374;2022-08-19T10:11:31;7.95;;;4.47;;
22256;SDS011;11297;42.686;23.374;2022-08-19T10:13:57;4.28;;;3.88;;
22256;SDS011;11297;42.686;23.374;2022-08-19T10:16:24;4.05;;;3.75;;
22256;SDS011;11297;42.686;23.374;2022-08-19T10:18:50;6.82;;;3.72;;
22256;SDS011;11297;42.686;23.374;2022-08-19T10:21:30;7.53;;;5.60;;
22256;SDS011;11297;42.686;23.374;2022-08-19T10:23:58;4.72;;;4.05;;
22256;SDS011;11297;42.686;23.374;2022-08-19T10:26:31;6.43;;;3.80;;
22256;SDS011;11297;42.686;23.374;2022-08-19T10:29:02;3.97;;;3.58;;
22256;SDS011;11297;42.686;23.374;2022-08-19T10:31:30;6.63;;;4.00;;
22256;SDS011;11297;42.686;23.374;2022-08-19T10:33:57;4.18;;;3.85;;
22256;SDS011;11297;42.686;23.374;2022-08-19T10:36:27;4.55;;;4.13;;
22256;SDS011;11297;42.686;23.374;2022-08-19T10:38:55;5.38;;;3.83;;
22256;SDS011;11297;42.686;23.374;2022-08-19T10:41:25;8.77;;;4.15;;
22256;SDS011;11297;42.686;23.374;2022-08-19T10:43:56;5.47;;;3.80;;
22256;SDS011;11297;42.686;23.374;2022-08-19T10:46:25;4.47;;;4.10;;
22256;SDS011;11297;42.686;23.374;2022-08-19T10:48:52;7.30;;;4.15;;
22256;SDS011;11297;42.686;23.374;2022-08-19T10:51:18;5.75;;;4.22;;
22256;SDS011;11297;42.686;23.374;2022-08-19T10:54:03;7.97;;;3.92;;
22256;SDS011;11297;42.686;23.374;2022-08-19T10:56:29;5.45;;;4.00;;
22256;SDS011;11297;42.686;23.374;2022-08-19T10:59:14;4.68;;;3.80;;
22256;SDS011;11297;42.686;23.374;2022-08-19T11:01:41;4.90;;;4.40;;
22256;SDS011;11297;42.686;23.374;2022-08-19T11:04:08;5.15;;;3.97;;
22256;SDS011;11297;42.686;23.374;2022-08-19T11:06:36;5.30;;;4.35;;
22256;SDS011;11297;42.686;23.374;2022-08-19T11:09:03;4.80;;;3.83;;
22256;SDS011;11297;42.686;23.374;2022-08-19T11:11:30;4.82;;;4.25;;
22256;SDS011;11297;42.686;23.374;2022-08-19T11:13:57;6.93;;;4.32;;
22256;SDS011;11297;42.686;23.374;2022-08-19T11:16:24;5.90;;;4.15;;
22256;SDS011;11297;42.686;23.374;2022-08-19T11:18:53;8.55;;;4.95;;
22256;SDS011;11297;42.686;23.374;2022-08-19T11:21:30;5.55;;;4.35;;
22256;SDS011;11297;42.686;23.374;2022-08-19T11:23:59;4.20;;;3.80;;
22256;SDS011;11297;42.686;23.374;2022-08-19T11:26:28;5.03;;;4.00;;
22256;SDS011;11297;42.686;23.374;2022-08-19T11:28:55;6.75;;;4.55;;
22256;SDS011;11297;42.686;23.374;2022-08-19T11:31:23;4.35;;;4.05;;
22256;SDS011;11297;42.686;23.374;2022-08-19T11:33:50;4.75;;;4.30;;
22256;SDS011;11297;42.686;23.374;2022-08-19T11:36:17;9.82;;;4.95;;
22256;SDS011;11297;42.686;23.374;2022-08-19T11:38:44;4.97;;;4.47;;
22256;SDS011;11297;42.686;23.374;2022-08-19T11:41:10;6.20;;;4.15;;
22256;SDS011;11297;42.686;23.374;2022-08-19T11:43:36;4.93;;;4.43;;
22256;SDS011;11297;42.686;23.374;2022-08-19T11:46:05;4.63;;;4.15;;
22256;SDS011;11297;42.686;23.374;2022-08-19T11:48:35;4.85;;;4.18;;
22256;SDS011;11297;42.686;23.374;2022-08-19T11:51:09;5.28;;;4.28;;
22256;SDS011;11297;42.686;23.374;2022-08-19T11:53:37;5.47;;;4.45;;
22256;SDS011;11297;42.686;23.374;2022-08-19T11:56:03;4.45;;;4.05;;
22256;SDS011;11297;42.686;23.374;2022-08-19T11:58:29;4.60;;;4.20;;
22256;SDS011;11297;42.686;23.374;2022-08-19T12:00:54;6.60;;;4.22;;
22256;SDS011;11297;42.686;23.374;2022-08-19T12:03:20;4.03;;;3.67;;
22256;SDS011;11297;42.686;23.374;2022-08-19T12:05:46;5.65;;;4.70;;
22256;SDS011;11297;42.686;23.374;2022-08-19T12:08:12;4.22;;;3.83;;
22256;SDS011;11297;42.686;23.374;2022-08-19T12:10:38;6.28;;;4.40;;
22256;SDS011;11297;42.686;23.374;2022-08-19T12:13:05;5.35;;;4.90;;
22256;SDS011;11297;42.686;23.374;2022-08-19T12:15:38;5.72;;;4.55;;
22256;SDS011;11297;42.686;23.374;2022-08-19T12:18:09;8.18;;;4.55;;
22256;SDS011;11297;42.686;23.374;2022-08-19T12:20:36;4.90;;;4.40;;
22256;SDS011;11297;42.686;23.374;2022-08-19T12:23:03;7.97;;;4.72;;
22256;SDS011;11297;42.686;23.374;2022-08-19T12:25:29;6.40;;;4.30;;
22256;SDS011;11297;42.686;23.374;2022-08-19T12:27:55;5.35;;;4.10;;
22256;SDS011;11297;42.686;23.374;2022-08-19T12:30:21;4.70;;;4.30;;
22256;SDS011;11297;42.686;23.374;2022-08-19T12:32:46;6.00;;;4.13;;
22256;SDS011;11297;42.686;23.374;2022-08-19T12:35:12;4.75;;;4.35;;
22256;SDS011;11297;42.686;23.374;2022-08-19T12:37:38;4.88;;;4.43;;
22256;SDS011;11297;42.686;23.374;2022-08-19T12:40:04;6.78;;;4.85;;
22256;SDS011;11297;42.686;23.374;2022-08-19T12:42:30;5.15;;;4.65;;
22256;SDS011;11297;42.686;23.374;2022-08-19T12:44:56;6.22;;;4.30;;
22256;SDS011;11297;42.686;23.374;2022-08-19T12:47:21;6.22;;;4.60;;
22256;SDS011;11297;42.686;23.374;2022-08-19T12:49:47;7.75;;;5.32;;
22256;SDS011;11297;42.686;23.374;2022-08-19T12:52:14;4.68;;;4.28;;
22256;SDS011;11297;42.686;23.374;2022-08-19T12:54:41;6.97;;;4.65;;
22256;SDS011;11297;42.686;23.374;2022-08-19T12:57:07;7.32;;;5.40;;
22256;SDS011;11297;42.686;23.374;2022-08-19T12:59:35;4.90;;;4.50;;
22256;SDS011;11297;42.686;23.374;2022-08-19T13:02:02;4.90;;;4.40;;
22256;SDS011;11297;42.686;23.374;2022-08-19T13:04:32;6.38;;;4.45;;
22256;SDS011;11297;42.686;23.374;2022-08-19T13:07:01;6.35;;;4.60;;
22256;SDS011;11297;42.686;23.374;2022-08-19T13:09:27;8.20;;;4.78;;
22256;SDS011;11297;42.686;23.374;2022-08-19T13:11:52;9.43;;;5.35;;
22256;SDS011;11297;42.686;23.374;2022-08-19T13:14:17;4.80;;;4.25;;
22256;SDS011;11297;42.686;23.374;2022-08-19T13:16:43;6.40;;;4.82;;
22256;SDS011;11297;42.686;23.374;2022-08-19T13:19:09;6.38;;;4.72;;
22256;SDS011;11297;42.686;23.374;2022-08-19T13:21:35;6.18;;;4.57;;
22256;SDS011;11297;42.686;23.374;2022-08-19T13:24:01;5.63;;;4.80;;
22256;SDS011;11297;42.686;23.374;2022-08-19T13:26:27;5.63;;;4.47;;
22256;SDS011;11297;42.686;23.374;2022-08-19T13:28:52;5.88;;;5.00;;
22256;SDS011;11297;42.686;23.374;2022-08-19T13:31:38;5.32;;;4.82;;
22256;SDS011;11297;42.686;23.374;2022-08-19T13:34:31;8.50;;;4.88;;
22256;SDS011;11297;42.686;23.374;2022-08-19T13:36:59;5.68;;;5.10;;
22256;SDS011;11297;42.686;23.374;2022-08-19T13:39:24;4.72;;;4.32;;
22256;SDS011;11297;42.686;23.374;2022-08-19T13:41:50;6.40;;;5.03;;
22256;SDS011;11297;42.686;23.374;2022-08-19T13:44:16;8.25;;;4.85;;
22256;SDS011;11297;42.686;23.374;2022-08-19T13:46:45;6.28;;;5.00;;
22256;SDS011;11297;42.686;23.374;2022-08-19T13:49:13;6.30;;;5.18;;
22256;SDS011;11297;42.686;23.374;2022-08-19T13:51:40;9.50;;;4.85;;
22256;SDS011;11297;42.686;23.374;2022-08-19T13:54:07;7.45;;;5.15;;
22256;SDS011;11297;42.686;23.374;2022-08-19T13:56:34;5.63;;;5.05;;
22256;SDS011;11297;42.686;23.374;2022-08-19T13:59:00;6.93;;;5.03;;
22256;SDS011;11297;42.686;23.374;2022-08-19T14:01:26;5.10;;;4.70;;
22256;SDS011;11297;42.686;23.374;2022-08-19T14:03:52;5.25;;;4.75;;
22256;SDS011;11297;42.686;23.374;2022-08-19T14:06:18;6.47;;;4.95;;
22256;SDS011;11297;42.686;23.374;2022-08-19T14:08:44;8.57;;;5.00;;
22256;SDS011;11297;42.686;23.374;2022-08-19T14:11:10;5.90;;;5.10;;
22256;SDS011;11297;42.686;23.374;2022-08-19T14:13:36;6.63;;;5.05;;
22256;SDS011;11297;42.686;23.374;2022-08-19T14:16:06;5.55;;;4.80;;
22256;SDS011;11297;42.686;23.374;2022-08-19T14:18:36;5.85;;;4.68;;
22256;SDS011;11297;42.686;23.374;2022-08-19T14:21:02;5.57;;;4.47;;
22256;SDS011;11297;42.686;23.374;2022-08-19T14:23:29;7.00;;;4.25;;
22256;SDS011;11297;42.686;23.374;2022-08-19T14:26:02;5.22;;;4.75;;
22256;SDS011;11297;42.686;23.374;2022-08-19T14:28:29;6.50;;;4.70;;
22256;SDS011;11297;42.686;23.374;2022-08-19T14:30:55;5.57;;;4.68;;
22256;SDS011;11297;42.686;23.374;2022-08-19T14:33:20;6.00;;;4.67;;
22256;SDS011;11297;42.686;23.374;2022-08-19T14:35:46;7.68;;;5.43;;
22256;SDS011;11297;42.686;23.374;2022-08-19T14:38:15;9.63;;;5.53;;
22256;SDS011;11297;42.686;23.374;2022-08-19T14:40:42;7.47;;;4.75;;
22256;SDS011;11297;42.686;23.374;2022-08-19T14:43:08;9.25;;;5.10;;
22256;SDS011;11297;42.686;23.374;2022-08-19T14:45:37;6.05;;;4.65;;